Terminal Aerodrome Forecast
Issued by NWS

Home | Current Version | Previous Version | Text Only | Print | Product List | Glossary On
Versions: 1 2 3 4 5 6 7 8 9 10 11 12 13
000
FTUS45 KABQ 021727
TAFFMN
TAF
KFMN 021727Z 0218/0318 09007KT P6SM VCSH SCT050 BKN110
     FM022200 21007KT P6SM VCTS BKN050CB
     FM030200 11008KT P6SM VCSH BKN080
     FM031100 08006KT P6SM BKN150=

USA.gov is the U.S. government's official web portal to all federal, state and local government web resources and services.